sensor_id;sensor_type;location;lat;lon;timestamp;P1;durP1;ratioP1;P2;durP2;ratioP2
26407;SDS011;14583;43.604;1.364;2022-07-12T00:01:17;5.00;;;2.70;;
26407;SDS011;14583;43.604;1.364;2022-07-12T00:03:43;7.25;;;2.92;;
26407;SDS011;14583;43.604;1.364;2022-07-12T00:06:09;4.68;;;2.90;;
26407;SDS011;14583;43.604;1.364;2022-07-12T00:08:35;4.40;;;2.80;;
26407;SDS011;14583;43.604;1.364;2022-07-12T00:11:02;9.20;;;3.63;;
26407;SDS011;14583;43.604;1.364;2022-07-12T00:13:28;4.90;;;2.75;;
26407;SDS011;14583;43.604;1.364;2022-07-12T00:15:55;5.55;;;3.13;;
26407;SDS011;14583;43.604;1.364;2022-07-12T00:18:21;7.45;;;3.22;;
26407;SDS011;14583;43.604;1.364;2022-07-12T00:20:48;7.05;;;3.03;;
26407;SDS011;14583;43.604;1.364;2022-07-12T00:23:13;8.70;;;2.92;;
26407;SDS011;14583;43.604;1.364;2022-07-12T00:25:39;7.78;;;3.00;;
26407;SDS011;14583;43.604;1.364;2022-07-12T00:28:05;6.60;;;2.50;;
26407;SDS011;14583;43.604;1.364;2022-07-12T00:30:31;4.18;;;2.58;;
26407;SDS011;14583;43.604;1.364;2022-07-12T00:32:57;5.65;;;2.85;;
26407;SDS011;14583;43.604;1.364;2022-07-12T00:35:23;8.57;;;2.55;;
26407;SDS011;14583;43.604;1.364;2022-07-12T00:37:48;6.68;;;2.88;;
26407;SDS011;14583;43.604;1.364;2022-07-12T00:40:14;2.88;;;2.30;;
26407;SDS011;14583;43.604;1.364;2022-07-12T00:42:40;7.05;;;2.75;;
26407;SDS011;14583;43.604;1.364;2022-07-12T00:45:06;4.00;;;2.38;;
26407;SDS011;14583;43.604;1.364;2022-07-12T00:47:34;7.32;;;2.50;;
26407;SDS011;14583;43.604;1.364;2022-07-12T00:52:40;6.22;;;2.70;;
26407;SDS011;14583;43.604;1.364;2022-07-12T00:55:07;8.50;;;3.15;;
26407;SDS011;14583;43.604;1.364;2022-07-12T00:57:37;4.45;;;2.45;;
26407;SDS011;14583;43.604;1.364;2022-07-12T01:00:04;7.80;;;2.40;;
26407;SDS011;14583;43.604;1.364;2022-07-12T01:02:32;9.77;;;2.42;;
26407;SDS011;14583;43.604;1.364;2022-07-12T01:04:59;6.60;;;2.60;;
26407;SDS011;14583;43.604;1.364;2022-07-12T01:07:25;6.00;;;2.78;;
26407;SDS011;14583;43.604;1.364;2022-07-12T01:09:54;5.65;;;2.60;;
26407;SDS011;14583;43.604;1.364;2022-07-12T01:12:21;5.55;;;2.30;;
26407;SDS011;14583;43.604;1.364;2022-07-12T01:14:48;3.47;;;2.35;;
26407;SDS011;14583;43.604;1.364;2022-07-12T01:17:15;9.15;;;2.70;;
26407;SDS011;14583;43.604;1.364;2022-07-12T01:19:46;6.00;;;2.60;;
26407;SDS011;14583;43.604;1.364;2022-07-12T01:22:14;3.42;;;2.45;;
26407;SDS011;14583;43.604;1.364;2022-07-12T01:24:41;7.57;;;2.80;;
26407;SDS011;14583;43.604;1.364;2022-07-12T01:27:07;8.95;;;3.10;;
26407;SDS011;14583;43.604;1.364;2022-07-12T01:29:33;7.43;;;3.05;;
26407;SDS011;14583;43.604;1.364;2022-07-12T01:32:00;8.32;;;2.85;;
26407;SDS011;14583;43.604;1.364;2022-07-12T01:35:03;6.40;;;2.58;;
26407;SDS011;14583;43.604;1.364;2022-07-12T01:37:33;5.35;;;2.55;;
26407;SDS011;14583;43.604;1.364;2022-07-12T01:40:00;8.13;;;3.00;;
26407;SDS011;14583;43.604;1.364;2022-07-12T01:42:27;4.82;;;2.90;;
26407;SDS011;14583;43.604;1.364;2022-07-12T01:44:54;5.40;;;2.95;;
26407;SDS011;14583;43.604;1.364;2022-07-12T01:47:20;8.48;;;2.78;;
26407;SDS011;14583;43.604;1.364;2022-07-12T01:49:47;8.85;;;2.70;;
26407;SDS011;14583;43.604;1.364;2022-07-12T01:52:13;4.57;;;3.03;;
26407;SDS011;14583;43.604;1.364;2022-07-12T01:54:39;5.15;;;2.67;;
26407;SDS011;14583;43.604;1.364;2022-07-12T01:57:05;5.45;;;2.83;;
26407;SDS011;14583;43.604;1.364;2022-07-12T01:59:31;5.82;;;3.03;;
26407;SDS011;14583;43.604;1.364;2022-07-12T02:01:58;6.50;;;3.00;;
26407;SDS011;14583;43.604;1.364;2022-07-12T02:04:24;6.30;;;2.67;;
26407;SDS011;14583;43.604;1.364;2022-07-12T02:06:50;9.50;;;2.30;;
26407;SDS011;14583;43.604;1.364;2022-07-12T02:09:16;6.70;;;2.97;;
26407;SDS011;14583;43.604;1.364;2022-07-12T02:11:42;9.35;;;2.90;;
26407;SDS011;14583;43.604;1.364;2022-07-12T02:14:09;6.80;;;2.92;;
26407;SDS011;14583;43.604;1.364;2022-07-12T02:16:40;5.13;;;2.60;;
26407;SDS011;14583;43.604;1.364;2022-07-12T02:19:07;7.72;;;2.30;;
26407;SDS011;14583;43.604;1.364;2022-07-12T02:21:33;7.93;;;3.03;;
26407;SDS011;14583;43.604;1.364;2022-07-12T02:23:59;8.57;;;2.60;;
26407;SDS011;14583;43.604;1.364;2022-07-12T02:26:25;4.03;;;2.45;;
26407;SDS011;14583;43.604;1.364;2022-07-12T02:28:51;4.32;;;2.50;;
26407;SDS011;14583;43.604;1.364;2022-07-12T02:31:16;5.70;;;3.03;;
26407;SDS011;14583;43.604;1.364;2022-07-12T02:33:42;5.65;;;2.97;;
26407;SDS011;14583;43.604;1.364;2022-07-12T02:36:08;4.72;;;2.55;;
26407;SDS011;14583;43.604;1.364;2022-07-12T02:38:34;4.80;;;2.75;;
26407;SDS011;14583;43.604;1.364;2022-07-12T02:41:00;7.78;;;2.67;;
26407;SDS011;14583;43.604;1.364;2022-07-12T02:43:27;9.38;;;3.10;;
26407;SDS011;14583;43.604;1.364;2022-07-12T02:45:54;3.00;;;2.60;;
26407;SDS011;14583;43.604;1.364;2022-07-12T02:48:23;8.23;;;3.60;;
26407;SDS011;14583;43.604;1.364;2022-07-12T02:50:49;5.38;;;2.83;;
26407;SDS011;14583;43.604;1.364;2022-07-12T02:53:15;6.55;;;3.00;;
26407;SDS011;14583;43.604;1.364;2022-07-12T02:55:40;7.75;;;2.90;;
26407;SDS011;14583;43.604;1.364;2022-07-12T02:58:06;7.72;;;3.33;;
26407;SDS011;14583;43.604;1.364;2022-07-12T03:00:33;7.82;;;2.75;;
26407;SDS011;14583;43.604;1.364;2022-07-12T03:03:00;7.28;;;2.78;;
26407;SDS011;14583;43.604;1.364;2022-07-12T03:05:26;7.97;;;2.65;;
26407;SDS011;14583;43.604;1.364;2022-07-12T03:07:51;4.70;;;2.80;;
26407;SDS011;14583;43.604;1.364;2022-07-12T03:10:17;5.13;;;3.17;;
26407;SDS011;14583;43.604;1.364;2022-07-12T03:12:43;9.18;;;2.97;;
26407;SDS011;14583;43.604;1.364;2022-07-12T03:15:09;3.97;;;2.70;;
26407;SDS011;14583;43.604;1.364;2022-07-12T03:17:35;3.88;;;2.63;;
26407;SDS011;14583;43.604;1.364;2022-07-12T03:20:01;5.10;;;2.83;;
26407;SDS011;14583;43.604;1.364;2022-07-12T03:22:29;5.65;;;2.83;;
26407;SDS011;14583;43.604;1.364;2022-07-12T03:24:55;9.35;;;2.88;;
26407;SDS011;14583;43.604;1.364;2022-07-12T03:27:20;9.18;;;2.97;;
26407;SDS011;14583;43.604;1.364;2022-07-12T03:29:46;6.00;;;2.88;;
26407;SDS011;14583;43.604;1.364;2022-07-12T03:32:12;6.90;;;3.08;;
26407;SDS011;14583;43.604;1.364;2022-07-12T03:34:38;6.68;;;2.80;;
26407;SDS011;14583;43.604;1.364;2022-07-12T03:37:03;9.70;;;2.92;;
26407;SDS011;14583;43.604;1.364;2022-07-12T03:39:29;6.22;;;2.97;;
26407;SDS011;14583;43.604;1.364;2022-07-12T03:41:55;3.67;;;3.08;;
26407;SDS011;14583;43.604;1.364;2022-07-12T03:44:21;6.07;;;3.10;;
26407;SDS011;14583;43.604;1.364;2022-07-12T03:46:47;4.38;;;3.00;;
26407;SDS011;14583;43.604;1.364;2022-07-12T03:49:13;5.70;;;3.17;;
26407;SDS011;14583;43.604;1.364;2022-07-12T03:51:39;8.00;;;3.03;;
26407;SDS011;14583;43.604;1.364;2022-07-12T03:54:05;4.18;;;2.80;;
26407;SDS011;14583;43.604;1.364;2022-07-12T03:56:33;9.68;;;2.80;;
26407;SDS011;14583;43.604;1.364;2022-07-12T03:59:20;4.47;;;3.00;;
26407;SDS011;14583;43.604;1.364;2022-07-12T04:01:46;6.60;;;3.17;;
26407;SDS011;14583;43.604;1.364;2022-07-12T04:04:12;6.60;;;3.13;;
26407;SDS011;14583;43.604;1.364;2022-07-12T04:06:38;7.13;;;3.20;;
26407;SDS011;14583;43.604;1.364;2022-07-12T04:09:05;6.38;;;3.20;;
26407;SDS011;14583;43.604;1.364;2022-07-12T04:11:31;3.42;;;2.88;;
26407;SDS011;14583;43.604;1.364;2022-07-12T04:13:57;7.05;;;3.42;;
26407;SDS011;14583;43.604;1.364;2022-07-12T04:16:23;6.95;;;3.50;;
26407;SDS011;14583;43.604;1.364;2022-07-12T04:18:49;5.82;;;2.90;;
26407;SDS011;14583;43.604;1.364;2022-07-12T04:21:14;8.30;;;3.42;;
26407;SDS011;14583;43.604;1.364;2022-07-12T04:23:40;5.28;;;3.42;;
26407;SDS011;14583;43.604;1.364;2022-07-12T04:26:06;10.13;;;3.72;;
26407;SDS011;14583;43.604;1.364;2022-07-12T04:28:31;9.93;;;3.10;;
26407;SDS011;14583;43.604;1.364;2022-07-12T04:30:57;6.95;;;3.30;;
26407;SDS011;14583;43.604;1.364;2022-07-12T04:33:23;5.72;;;3.35;;
26407;SDS011;14583;43.604;1.364;2022-07-12T04:35:48;7.55;;;3.38;;
26407;SDS011;14583;43.604;1.364;2022-07-12T04:38:14;6.57;;;3.50;;
26407;SDS011;14583;43.604;1.364;2022-07-12T04:40:40;8.23;;;3.10;;
26407;SDS011;14583;43.604;1.364;2022-07-12T04:43:05;5.45;;;3.03;;
26407;SDS011;14583;43.604;1.364;2022-07-12T04:45:31;9.35;;;3.38;;
26407;SDS011;14583;43.604;1.364;2022-07-12T04:47:57;6.90;;;3.33;;
26407;SDS011;14583;43.604;1.364;2022-07-12T04:50:22;9.35;;;3.20;;
26407;SDS011;14583;43.604;1.364;2022-07-12T04:52:48;9.20;;;3.03;;
26407;SDS011;14583;43.604;1.364;2022-07-12T04:55:14;11.13;;;3.25;;
26407;SDS011;14583;43.604;1.364;2022-07-12T04:57:39;5.10;;;3.17;;
26407;SDS011;14583;43.604;1.364;2022-07-12T05:00:05;6.82;;;3.05;;
26407;SDS011;14583;43.604;1.364;2022-07-12T05:02:32;7.90;;;3.10;;
26407;SDS011;14583;43.604;1.364;2022-07-12T05:04:58;7.28;;;3.67;;
26407;SDS011;14583;43.604;1.364;2022-07-12T05:07:24;10.13;;;2.88;;
26407;SDS011;14583;43.604;1.364;2022-07-12T05:09:50;5.45;;;3.30;;
26407;SDS011;14583;43.604;1.364;2022-07-12T05:12:16;9.85;;;2.80;;
26407;SDS011;14583;43.604;1.364;2022-07-12T05:14:42;7.50;;;3.15;;
26407;SDS011;14583;43.604;1.364;2022-07-12T05:17:08;8.30;;;3.30;;
26407;SDS011;14583;43.604;1.364;2022-07-12T05:19:34;8.20;;;3.22;;
26407;SDS011;14583;43.604;1.364;2022-07-12T05:22:00;5.38;;;3.40;;
26407;SDS011;14583;43.604;1.364;2022-07-12T05:24:27;8.95;;;3.00;;
26407;SDS011;14583;43.604;1.364;2022-07-12T05:26:53;6.65;;;2.90;;
26407;SDS011;14583;43.604;1.364;2022-07-12T05:29:19;11.90;;;3.35;;
26407;SDS011;14583;43.604;1.364;2022-07-12T05:31:45;5.68;;;3.03;;
26407;SDS011;14583;43.604;1.364;2022-07-12T05:34:11;9.25;;;3.10;;
26407;SDS011;14583;43.604;1.364;2022-07-12T05:36:37;10.40;;;3.67;;
26407;SDS011;14583;43.604;1.364;2022-07-12T05:39:03;9.43;;;3.38;;
26407;SDS011;14583;43.604;1.364;2022-07-12T05:41:29;5.60;;;3.00;;
26407;SDS011;14583;43.604;1.364;2022-07-12T05:43:54;7.72;;;2.92;;
26407;SDS011;14583;43.604;1.364;2022-07-12T05:46:20;9.73;;;3.83;;
26407;SDS011;14583;43.604;1.364;2022-07-12T05:48:46;10.90;;;3.78;;
26407;SDS011;14583;43.604;1.364;2022-07-12T05:51:11;8.30;;;2.97;;
26407;SDS011;14583;43.604;1.364;2022-07-12T05:53:56;8.85;;;3.25;;
26407;SDS011;14583;43.604;1.364;2022-07-12T05:56:21;10.07;;;3.13;;
26407;SDS011;14583;43.604;1.364;2022-07-12T05:58:47;9.95;;;3.38;;
26407;SDS011;14583;43.604;1.364;2022-07-12T06:01:12;12.75;;;3.38;;
26407;SDS011;14583;43.604;1.364;2022-07-12T06:03:38;14.63;;;3.97;;
26407;SDS011;14583;43.604;1.364;2022-07-12T06:06:04;16.00;;;3.50;;
26407;SDS011;14583;43.604;1.364;2022-07-12T06:08:30;15.45;;;4.07;;
26407;SDS011;14583;43.604;1.364;2022-07-12T06:10:55;12.77;;;2.88;;
26407;SDS011;14583;43.604;1.364;2022-07-12T06:13:21;10.50;;;3.38;;
26407;SDS011;14583;43.604;1.364;2022-07-12T06:15:47;11.13;;;3.28;;
26407;SDS011;14583;43.604;1.364;2022-07-12T06:18:13;10.63;;;3.05;;
26407;SDS011;14583;43.604;1.364;2022-07-12T06:20:38;19.35;;;3.45;;
26407;SDS011;14583;43.604;1.364;2022-07-12T06:23:04;17.25;;;3.50;;
26407;SDS011;14583;43.604;1.364;2022-07-12T06:25:30;15.48;;;3.63;;
26407;SDS011;14583;43.604;1.364;2022-07-12T06:27:59;8.05;;;3.15;;
26407;SDS011;14583;43.604;1.364;2022-07-12T06:30:25;10.15;;;3.47;;
26407;SDS011;14583;43.604;1.364;2022-07-12T06:32:51;14.15;;;3.20;;
26407;SDS011;14583;43.604;1.364;2022-07-12T06:35:17;8.43;;;3.15;;
26407;SDS011;14583;43.604;1.364;2022-07-12T06:37:43;10.10;;;2.90;;
26407;SDS011;14583;43.604;1.364;2022-07-12T06:40:10;11.38;;;3.20;;
26407;SDS011;14583;43.604;1.364;2022-07-12T06:42:36;15.10;;;3.30;;
26407;SDS011;14583;43.604;1.364;2022-07-12T06:45:02;16.20;;;3.17;;
26407;SDS011;14583;43.604;1.364;2022-07-12T06:47:28;9.93;;;2.97;;
26407;SDS011;14583;43.604;1.364;2022-07-12T06:49:54;13.20;;;3.30;;
26407;SDS011;14583;43.604;1.364;2022-07-12T06:52:20;8.63;;;3.35;;
26407;SDS011;14583;43.604;1.364;2022-07-12T06:54:45;11.35;;;3.28;;
26407;SDS011;14583;43.604;1.364;2022-07-12T06:57:11;16.83;;;3.72;;
26407;SDS011;14583;43.604;1.364;2022-07-12T06:59:37;14.25;;;3.58;;
26407;SDS011;14583;43.604;1.364;2022-07-12T07:02:03;10.93;;;3.10;;
26407;SDS011;14583;43.604;1.364;2022-07-12T07:04:29;11.38;;;2.97;;
26407;SDS011;14583;43.604;1.364;2022-07-12T07:06:55;8.35;;;3.30;;
26407;SDS011;14583;43.604;1.364;2022-07-12T07:09:20;11.65;;;3.08;;
26407;SDS011;14583;43.604;1.364;2022-07-12T07:11:46;13.63;;;3.05;;
26407;SDS011;14583;43.604;1.364;2022-07-12T07:14:11;6.40;;;2.53;;
26407;SDS011;14583;43.604;1.364;2022-07-12T07:16:37;6.95;;;2.92;;
26407;SDS011;14583;43.604;1.364;2022-07-12T07:19:03;7.60;;;3.15;;
26407;SDS011;14583;43.604;1.364;2022-07-12T07:21:30;7.65;;;2.88;;
26407;SDS011;14583;43.604;1.364;2022-07-12T07:23:56;6.57;;;2.58;;
26407;SDS011;14583;43.604;1.364;2022-07-12T07:26:22;10.60;;;2.72;;
26407;SDS011;14583;43.604;1.364;2022-07-12T07:28:48;8.27;;;2.97;;
26407;SDS011;14583;43.604;1.364;2022-07-12T07:31:40;6.45;;;2.53;;
26407;SDS011;14583;43.604;1.364;2022-07-12T07:34:06;9.38;;;2.92;;
26407;SDS011;14583;43.604;1.364;2022-07-12T07:36:32;4.22;;;2.08;;
26407;SDS011;14583;43.604;1.364;2022-07-12T07:38:58;9.55;;;2.47;;
26407;SDS011;14583;43.604;1.364;2022-07-12T07:41:24;3.38;;;2.42;;
26407;SDS011;14583;43.604;1.364;2022-07-12T07:43:50;8.95;;;2.75;;
26407;SDS011;14583;43.604;1.364;2022-07-12T07:46:16;8.80;;;2.80;;
26407;SDS011;14583;43.604;1.364;2022-07-12T07:48:42;16.65;;;2.72;;
26407;SDS011;14583;43.604;1.364;2022-07-12T07:51:07;14.57;;;2.95;;
26407;SDS011;14583;43.604;1.364;2022-07-12T07:53:33;14.10;;;2.90;;
26407;SDS011;14583;43.604;1.364;2022-07-12T07:55:59;12.15;;;2.67;;
26407;SDS011;14583;43.604;1.364;2022-07-12T07:58:25;4.45;;;2.40;;
26407;SDS011;14583;43.604;1.364;2022-07-12T08:00:51;13.40;;;2.78;;
26407;SDS011;14583;43.604;1.364;2022-07-12T08:03:17;5.35;;;2.30;;
26407;SDS011;14583;43.604;1.364;2022-07-12T08:05:44;8.95;;;2.42;;
26407;SDS011;14583;43.604;1.364;2022-07-12T08:08:10;4.43;;;2.30;;
26407;SDS011;14583;43.604;1.364;2022-07-12T08:10:35;6.40;;;2.20;;
26407;SDS011;14583;43.604;1.364;2022-07-12T08:13:01;4.55;;;2.72;;
26407;SDS011;14583;43.604;1.364;2022-07-12T08:15:27;3.90;;;2.10;;
26407;SDS011;14583;43.604;1.364;2022-07-12T08:17:53;11.68;;;2.80;;
26407;SDS011;14583;43.604;1.364;2022-07-12T08:20:18;5.22;;;2.20;;
26407;SDS011;14583;43.604;1.364;2022-07-12T08:22:45;11.27;;;2.42;;
26407;SDS011;14583;43.604;1.364;2022-07-12T08:25:11;7.05;;;1.90;;
26407;SDS011;14583;43.604;1.364;2022-07-12T08:27:38;2.72;;;2.17;;
26407;SDS011;14583;43.604;1.364;2022-07-12T08:30:03;3.85;;;2.13;;
26407;SDS011;14583;43.604;1.364;2022-07-12T08:32:30;5.57;;;2.05;;
26407;SDS011;14583;43.604;1.364;2022-07-12T08:34:56;4.95;;;1.92;;
26407;SDS011;14583;43.604;1.364;2022-07-12T08:37:21;6.53;;;2.30;;
26407;SDS011;14583;43.604;1.364;2022-07-12T08:39:47;9.77;;;2.30;;
26407;SDS011;14583;43.604;1.364;2022-07-12T08:42:16;5.18;;;2.20;;
26407;SDS011;14583;43.604;1.364;2022-07-12T08:44:43;8.15;;;2.17;;
26407;SDS011;14583;43.604;1.364;2022-07-12T08:47:10;6.18;;;2.40;;
26407;SDS011;14583;43.604;1.364;2022-07-12T08:49:36;2.58;;;2.20;;
26407;SDS011;14583;43.604;1.364;2022-07-12T08:52:23;5.22;;;2.40;;
26407;SDS011;14583;43.604;1.364;2022-07-12T08:54:52;2.78;;;1.90;;
26407;SDS011;14583;43.604;1.364;2022-07-12T08:57:30;4.78;;;1.98;;
26407;SDS011;14583;43.604;1.364;2022-07-12T08:59:59;9.02;;;2.20;;
26407;SDS011;14583;43.604;1.364;2022-07-12T09:02:25;13.00;;;2.58;;
26407;SDS011;14583;43.604;1.364;2022-07-12T09:05:07;5.97;;;2.22;;
26407;SDS011;14583;43.604;1.364;2022-07-12T09:07:36;5.13;;;2.13;;
26407;SDS011;14583;43.604;1.364;2022-07-12T09:10:04;6.25;;;2.05;;
26407;SDS011;14583;43.604;1.364;2022-07-12T09:12:30;7.03;;;2.33;;
26407;SDS011;14583;43.604;1.364;2022-07-12T09:15:17;10.35;;;2.30;;
26407;SDS011;14583;43.604;1.364;2022-07-12T09:17:54;7.70;;;2.00;;
26407;SDS011;14583;43.604;1.364;2022-07-12T09:20:37;5.68;;;2.47;;
26407;SDS011;14583;43.604;1.364;2022-07-12T09:23:05;3.22;;;2.10;;
26407;SDS011;14583;43.604;1.364;2022-07-12T09:25:33;4.60;;;2.17;;
26407;SDS011;14583;43.604;1.364;2022-07-12T09:28:00;6.43;;;2.35;;
26407;SDS011;14583;43.604;1.364;2022-07-12T09:30:29;6.57;;;3.15;;
26407;SDS011;14583;43.604;1.364;2022-07-12T09:33:05;11.93;;;2.08;;
26407;SDS011;14583;43.604;1.364;2022-07-12T09:43:44;5.75;;;2.33;;
26407;SDS011;14583;43.604;1.364;2022-07-12T09:46:10;4.22;;;2.25;;
26407;SDS011;14583;43.604;1.364;2022-07-12T09:48:36;8.23;;;2.70;;
26407;SDS011;14583;43.604;1.364;2022-07-12T09:51:02;9.45;;;3.00;;
26407;SDS011;14583;43.604;1.364;2022-07-12T09:53:31;4.53;;;2.17;;
26407;SDS011;14583;43.604;1.364;2022-07-12T09:56:01;3.97;;;2.55;;
26407;SDS011;14583;43.604;1.364;2022-07-12T09:58:43;5.72;;;2.40;;
26407;SDS011;14583;43.604;1.364;2022-07-12T10:01:16;9.38;;;2.92;;
26407;SDS011;14583;43.604;1.364;2022-07-12T10:03:43;3.17;;;2.47;;
26407;SDS011;14583;43.604;1.364;2022-07-12T10:06:11;6.55;;;2.70;;
26407;SDS011;14583;43.604;1.364;2022-07-12T10:08:38;8.13;;;2.40;;
26407;SDS011;14583;43.604;1.364;2022-07-12T10:11:05;9.88;;;2.17;;
26407;SDS011;14583;43.604;1.364;2022-07-12T10:13:32;7.93;;;2.80;;
26407;SDS011;14583;43.604;1.364;2022-07-12T10:16:01;7.07;;;2.60;;
26407;SDS011;14583;43.604;1.364;2022-07-12T10:18:28;6.28;;;2.15;;
26407;SDS011;14583;43.604;1.364;2022-07-12T10:20:54;9.50;;;2.85;;
26407;SDS011;14583;43.604;1.364;2022-07-12T10:25:59;2.90;;;1.80;;
26407;SDS011;14583;43.604;1.364;2022-07-12T10:28:54;7.93;;;2.40;;
26407;SDS011;14583;43.604;1.364;2022-07-12T10:31:25;4.45;;;3.55;;
26407;SDS011;14583;43.604;1.364;2022-07-12T10:39:26;6.13;;;2.53;;
26407;SDS011;14583;43.604;1.364;2022-07-12T10:44:37;4.15;;;2.88;;
26407;SDS011;14583;43.604;1.364;2022-07-12T10:47:07;6.32;;;2.13;;
26407;SDS011;14583;43.604;1.364;2022-07-12T10:49:33;11.00;;;3.53;;
26407;SDS011;14583;43.604;1.364;2022-07-12T10:55:21;7.10;;;2.50;;
26407;SDS011;14583;43.604;1.364;2022-07-12T11:00:08;3.25;;;2.50;;
26407;SDS011;14583;43.604;1.364;2022-07-12T11:02:35;8.38;;;5.03;;
26407;SDS011;14583;43.604;1.364;2022-07-12T11:05:01;6.85;;;2.78;;
26407;SDS011;14583;43.604;1.364;2022-07-12T11:07:27;4.32;;;2.65;;
26407;SDS011;14583;43.604;1.364;2022-07-12T11:09:53;4.28;;;2.58;;
26407;SDS011;14583;43.604;1.364;2022-07-12T11:12:20;5.90;;;2.38;;
26407;SDS011;14583;43.604;1.364;2022-07-12T11:14:51;4.78;;;2.40;;
26407;SDS011;14583;43.604;1.364;2022-07-12T11:17:20;7.68;;;2.10;;
26407;SDS011;14583;43.604;1.364;2022-07-12T11:19:50;15.85;;;2.55;;
26407;SDS011;14583;43.604;1.364;2022-07-12T11:22:28;4.10;;;2.25;;
26407;SDS011;14583;43.604;1.364;2022-07-12T11:24:54;6.70;;;2.40;;
26407;SDS011;14583;43.604;1.364;2022-07-12T11:27:20;6.60;;;2.28;;
26407;SDS011;14583;43.604;1.364;2022-07-12T11:29:58;8.98;;;2.30;;
26407;SDS011;14583;43.604;1.364;2022-07-12T11:32:40;6.68;;;2.40;;
26407;SDS011;14583;43.604;1.364;2022-07-12T11:35:18;3.53;;;2.13;;
26407;SDS011;14583;43.604;1.364;2022-07-12T11:37:55;4.03;;;2.10;;
26407;SDS011;14583;43.604;1.364;2022-07-12T11:40:22;2.90;;;2.35;;
26407;SDS011;14583;43.604;1.364;2022-07-12T11:42:55;3.50;;;2.17;;
26407;SDS011;14583;43.604;1.364;2022-07-12T11:45:23;7.15;;;2.90;;
26407;SDS011;14583;43.604;1.364;2022-07-12T11:47:53;5.28;;;2.53;;
26407;SDS011;14583;43.604;1.364;2022-07-12T11:50:19;6.00;;;2.63;;
26407;SDS011;14583;43.604;1.364;2022-07-12T11:52:45;3.50;;;1.95;;
26407;SDS011;14583;43.604;1.364;2022-07-12T11:55:11;2.55;;;2.20;;
26407;SDS011;14583;43.604;1.364;2022-07-12T11:57:37;4.63;;;3.30;;
26407;SDS011;14583;43.604;1.364;2022-07-12T12:02:41;5.93;;;2.30;;
26407;SDS011;14583;43.604;1.364;2022-07-12T12:05:07;8.02;;;2.70;;
26407;SDS011;14583;43.604;1.364;2022-07-12T12:07:33;6.70;;;3.08;;
26407;SDS011;14583;43.604;1.364;2022-07-12T12:12:45;4.15;;;2.28;;
26407;SDS011;14583;43.604;1.364;2022-07-12T12:15:20;6.68;;;2.13;;
26407;SDS011;14583;43.604;1.364;2022-07-12T12:20:23;4.15;;;2.33;;
26407;SDS011;14583;43.604;1.364;2022-07-12T12:22:54;4.97;;;2.13;;
26407;SDS011;14583;43.604;1.364;2022-07-12T12:25:21;3.88;;;2.63;;
26407;SDS011;14583;43.604;1.364;2022-07-12T12:27:48;2.97;;;2.03;;
26407;SDS011;14583;43.604;1.364;2022-07-12T12:30:18;4.57;;;2.30;;
26407;SDS011;14583;43.604;1.364;2022-07-12T12:32:44;7.20;;;1.92;;
26407;SDS011;14583;43.604;1.364;2022-07-12T12:35:11;6.07;;;2.63;;
26407;SDS011;14583;43.604;1.364;2022-07-12T12:37:38;3.63;;;2.10;;
26407;SDS011;14583;43.604;1.364;2022-07-12T12:40:05;3.03;;;1.98;;
26407;SDS011;14583;43.604;1.364;2022-07-12T12:42:31;4.63;;;2.08;;
26407;SDS011;14583;43.604;1.364;2022-07-12T12:44:57;3.28;;;2.28;;
26407;SDS011;14583;43.604;1.364;2022-07-12T12:47:23;5.53;;;1.92;;
26407;SDS011;14583;43.604;1.364;2022-07-12T12:49:59;5.57;;;2.17;;
26407;SDS011;14583;43.604;1.364;2022-07-12T12:52:26;4.18;;;2.47;;
26407;SDS011;14583;43.604;1.364;2022-07-12T12:54:54;2.97;;;2.08;;
26407;SDS011;14583;43.604;1.364;2022-07-12T12:57:20;12.13;;;2.40;;
26407;SDS011;14583;43.604;1.364;2022-07-12T12:59:46;6.40;;;2.30;;
26407;SDS011;14583;43.604;1.364;2022-07-12T13:02:12;6.93;;;2.80;;
26407;SDS011;14583;43.604;1.364;2022-07-12T13:04:38;5.97;;;2.58;;
26407;SDS011;14583;43.604;1.364;2022-07-12T13:07:05;3.28;;;2.10;;
26407;SDS011;14583;43.604;1.364;2022-07-12T13:09:31;5.22;;;2.13;;
26407;SDS011;14583;43.604;1.364;2022-07-12T13:11:58;4.70;;;2.30;;
26407;SDS011;14583;43.604;1.364;2022-07-12T13:14:24;4.07;;;2.22;;
26407;SDS011;14583;43.604;1.364;2022-07-12T13:16:50;7.38;;;1.80;;
26407;SDS011;14583;43.604;1.364;2022-07-12T13:19:16;6.93;;;2.17;;
26407;SDS011;14583;43.604;1.364;2022-07-12T13:21:42;5.43;;;2.00;;
26407;SDS011;14583;43.604;1.364;2022-07-12T13:24:08;7.63;;;2.03;;
26407;SDS011;14583;43.604;1.364;2022-07-12T13:26:34;3.38;;;1.67;;
26407;SDS011;14583;43.604;1.364;2022-07-12T13:29:00;4.75;;;1.90;;
26407;SDS011;14583;43.604;1.364;2022-07-12T13:31:25;3.55;;;1.73;;
26407;SDS011;14583;43.604;1.364;2022-07-12T13:33:51;4.78;;;2.30;;
26407;SDS011;14583;43.604;1.364;2022-07-12T13:36:17;8.98;;;1.92;;
26407;SDS011;14583;43.604;1.364;2022-07-12T13:38:43;3.00;;;2.00;;
26407;SDS011;14583;43.604;1.364;2022-07-12T13:41:09;3.10;;;1.90;;
26407;SDS011;14583;43.604;1.364;2022-07-12T13:43:34;5.68;;;1.80;;
26407;SDS011;14583;43.604;1.364;2022-07-12T13:46:01;4.53;;;1.83;;
26407;SDS011;14583;43.604;1.364;2022-07-12T13:48:28;4.20;;;1.40;;
26407;SDS011;14583;43.604;1.364;2022-07-12T13:50:57;4.32;;;1.50;;
26407;SDS011;14583;43.604;1.364;2022-07-12T13:53:23;4.80;;;1.80;;
26407;SDS011;14583;43.604;1.364;2022-07-12T13:55:48;3.13;;;1.92;;
26407;SDS011;14583;43.604;1.364;2022-07-12T13:58:14;2.40;;;1.67;;
26407;SDS011;14583;43.604;1.364;2022-07-12T14:00:40;2.90;;;1.60;;
26407;SDS011;14583;43.604;1.364;2022-07-12T14:03:06;3.50;;;1.65;;
26407;SDS011;14583;43.604;1.364;2022-07-12T14:05:33;2.60;;;1.70;;
26407;SDS011;14583;43.604;1.364;2022-07-12T14:07:59;5.90;;;1.60;;
26407;SDS011;14583;43.604;1.364;2022-07-12T14:10:25;5.53;;;1.60;;
26407;SDS011;14583;43.604;1.364;2022-07-12T14:12:51;3.70;;;1.60;;
26407;SDS011;14583;43.604;1.364;2022-07-12T14:15:17;3.05;;;1.60;;
26407;SDS011;14583;43.604;1.364;2022-07-12T14:18:01;5.03;;;1.50;;
26407;SDS011;14583;43.604;1.364;2022-07-12T14:20:29;2.45;;;1.38;;
26407;SDS011;14583;43.604;1.364;2022-07-12T14:22:55;3.13;;;1.80;;
26407;SDS011;14583;43.604;1.364;2022-07-12T14:25:21;5.45;;;1.60;;
26407;SDS011;14583;43.604;1.364;2022-07-12T14:27:47;3.45;;;2.38;;
26407;SDS011;14583;43.604;1.364;2022-07-12T14:30:13;2.95;;;1.42;;
26407;SDS011;14583;43.604;1.364;2022-07-12T14:32:39;5.03;;;1.45;;
26407;SDS011;14583;43.604;1.364;2022-07-12T14:35:06;3.70;;;1.30;;
26407;SDS011;14583;43.604;1.364;2022-07-12T14:37:33;3.78;;;1.45;;
26407;SDS011;14583;43.604;1.364;2022-07-12T14:39:59;2.88;;;1.40;;
26407;SDS011;14583;43.604;1.364;2022-07-12T14:42:25;1.58;;;1.30;;
26407;SDS011;14583;43.604;1.364;2022-07-12T14:44:51;3.45;;;1.30;;
26407;SDS011;14583;43.604;1.364;2022-07-12T14:47:17;6.18;;;1.80;;
26407;SDS011;14583;43.604;1.364;2022-07-12T14:49:44;3.97;;;1.48;;
26407;SDS011;14583;43.604;1.364;2022-07-12T14:52:10;5.53;;;1.60;;
26407;SDS011;14583;43.604;1.364;2022-07-12T14:54:36;3.72;;;1.67;;
26407;SDS011;14583;43.604;1.364;2022-07-12T14:57:01;2.47;;;1.67;;
26407;SDS011;14583;43.604;1.364;2022-07-12T14:59:27;4.40;;;1.40;;
26407;SDS011;14583;43.604;1.364;2022-07-12T15:01:53;4.32;;;1.50;;
26407;SDS011;14583;43.604;1.364;2022-07-12T15:04:19;8.23;;;3.92;;
26407;SDS011;14583;43.604;1.364;2022-07-12T15:06:45;3.42;;;2.28;;
26407;SDS011;14583;43.604;1.364;2022-07-12T15:09:10;4.47;;;1.60;;
26407;SDS011;14583;43.604;1.364;2022-07-12T15:11:36;8.05;;;1.83;;
26407;SDS011;14583;43.604;1.364;2022-07-12T15:14:02;3.45;;;1.40;;
26407;SDS011;14583;43.604;1.364;2022-07-12T15:16:28;3.85;;;1.80;;
26407;SDS011;14583;43.604;1.364;2022-07-12T15:18:54;5.30;;;1.58;;
26407;SDS011;14583;43.604;1.364;2022-07-12T15:21:21;2.53;;;1.67;;